createdAt,value
2022-11-23T00:00:20.984Z,7.80
2022-11-23T00:05:52.756Z,7.85
2022-11-23T00:11:24.273Z,7.90
2022-11-23T00:16:56.294Z,7.95
2022-11-23T00:22:28.351Z,7.95
2022-11-23T00:28:00.245Z,8.00
2022-11-23T00:33:31.924Z,8.00
2022-11-23T00:39:03.872Z,8.05
2022-11-23T00:44:35.613Z,8.10
2022-11-23T00:50:07.269Z,8.35
2022-11-23T00:55:38.918Z,8.50
2022-11-23T01:01:10.801Z,8.65
2022-11-23T01:06:42.582Z,8.90
2022-11-23T01:12:14.408Z,8.95
2022-11-23T01:17:46.031Z,9.00
2022-11-23T01:23:18.289Z,9.10
2022-11-23T01:28:50.217Z,9.20
2022-11-23T01:34:22.069Z,9.25
2022-11-23T01:39:53.806Z,9.35
2022-11-23T01:45:25.624Z,9.35
2022-11-23T01:50:57.403Z,9.50
2022-11-23T01:56:29.483Z,9.55
2022-11-23T02:02:01.056Z,9.70
2022-11-23T02:07:33.081Z,9.70
2022-11-23T02:18:34.121Z,9.85
2022-11-23T02:24:06.156Z,9.90
2022-11-23T02:29:37.664Z,10.00
2022-11-23T02:35:09.590Z,10.10
2022-11-23T02:40:41.352Z,10.10
2022-11-23T02:46:13.438Z,10.20
2022-11-23T02:51:45.466Z,10.25
2022-11-23T02:57:17.641Z,10.35
2022-11-23T03:04:43.750Z,1.97
2022-11-23T03:10:15.447Z,0.98
2022-11-23T03:15:47.274Z,0.66
2022-11-23T03:21:19.212Z,1.47
2022-11-23T03:26:50.705Z,1.37
2022-11-23T03:32:22.150Z,1.47
2022-11-23T03:37:53.939Z,1.82
2022-11-23T03:43:25.709Z,1.84
2022-11-23T03:48:57.451Z,2.07
2022-11-23T03:54:29.442Z,1.96
2022-11-23T04:00:01.275Z,1.96
2022-11-23T04:05:33.075Z,1.96
2022-11-23T04:11:04.590Z,1.96
2022-11-23T04:16:36.663Z,1.89
2022-11-23T04:22:08.372Z,1.96
2022-11-23T04:27:40.472Z,1.90
2022-11-23T04:33:12.485Z,1.84
2022-11-23T04:38:44.112Z,1.74
2022-11-23T04:44:15.739Z,1.86
2022-11-23T04:49:47.702Z,1.80
2022-11-23T04:55:19.378Z,1.90
2022-11-23T05:00:51.267Z,1.90
2022-11-23T05:06:22.945Z,1.95
2022-11-23T05:11:54.466Z,2.00
2022-11-23T05:17:26.491Z,2.05
2022-11-23T05:22:58.094Z,2.10
2022-11-23T05:28:40.359Z,2.30
2022-11-23T05:34:01.654Z,2.30
2022-11-23T05:39:33.592Z,2.40
2022-11-23T05:45:10.054Z,2.55
2022-11-23T05:50:36.921Z,2.60
2022-11-23T05:56:08.711Z,2.80
2022-11-23T06:01:40.655Z,2.90
2022-11-23T06:07:12.395Z,2.95
2022-11-23T06:12:44.214Z,3.00
2022-11-23T06:18:15.822Z,3.10
2022-11-23T06:23:47.747Z,3.20
2022-11-23T06:29:19.739Z,3.30
2022-11-23T06:34:51.636Z,3.30
2022-11-23T06:40:23.724Z,3.55
2022-11-23T06:45:55.258Z,3.75
2022-11-23T06:51:27.001Z,3.95
2022-11-23T06:56:58.873Z,4.00
2022-11-23T07:02:30.528Z,4.00
2022-11-23T07:08:02.529Z,4.15
2022-11-23T07:13:34.068Z,4.35
2022-11-23T07:19:05.891Z,4.40
2022-11-23T07:24:41.476Z,4.55
2022-11-23T07:30:09.352Z,4.75
2022-11-23T07:35:41.204Z,4.85
2022-11-23T07:41:12.817Z,4.90
2022-11-23T07:46:44.654Z,5.00
2022-11-23T07:52:16.299Z,5.10
2022-11-23T07:57:48.078Z,5.20
2022-11-23T08:03:28.492Z,5.35
2022-11-23T08:08:51.739Z,5.35
2022-11-23T08:14:23.429Z,5.45
2022-11-23T08:19:55.346Z,5.60
2022-11-23T08:25:26.970Z,5.60
2022-11-23T08:36:30.452Z,5.90
2022-11-23T08:42:02.085Z,6.00
2022-11-23T08:47:33.892Z,6.10
2022-11-23T08:53:05.791Z,6.25
2022-11-23T08:58:37.410Z,6.30
2022-11-23T09:04:09.485Z,6.40
2022-11-23T09:09:47.390Z,6.45
2022-11-23T09:15:24.764Z,6.50
2022-11-23T09:20:56.189Z,6.50
2022-11-23T09:26:28.288Z,6.75
2022-11-23T09:31:59.906Z,6.80
2022-11-23T09:37:31.735Z,6.90
2022-11-23T09:43:03.421Z,6.90
2022-11-23T09:48:35.301Z,7.00
2022-11-23T09:54:07.186Z,7.15
2022-11-23T09:59:38.986Z,7.25
2022-11-23T10:05:10.591Z,7.30
2022-11-23T10:10:42.253Z,7.35
2022-11-23T10:16:14.255Z,7.40
2022-11-23T10:21:46.309Z,7.55
2022-11-23T10:27:17.820Z,7.70
2022-11-23T10:32:55.794Z,7.80
2022-11-23T10:38:27.142Z,7.80
2022-11-23T10:43:58.694Z,7.90
2022-11-23T10:49:30.381Z,7.95
2022-11-23T10:55:02.229Z,8.05
2022-11-23T11:00:39.787Z,8.35
2022-11-23T11:06:11.961Z,8.45
2022-11-23T11:11:43.033Z,8.60
2022-11-23T11:17:21.155Z,8.60
2022-11-23T11:22:52.841Z,8.70
2022-11-23T11:28:24.384Z,8.80
2022-11-23T11:39:25.947Z,9.10
2022-11-23T11:44:57.855Z,9.25
2022-11-23T11:50:31.939Z,9.35
2022-11-23T11:56:01.211Z,9.55
2022-11-23T12:01:33.162Z,9.65
2022-11-23T12:07:05.174Z,9.90
2022-11-23T12:12:37.007Z,10.05
2022-11-23T12:23:40.641Z,10.50
2022-11-23T12:29:12.500Z,10.70
2022-11-23T12:34:44.363Z,10.75
2022-11-23T12:40:16.010Z,10.95
2022-11-23T12:45:47.827Z,11.10
2022-11-23T12:51:19.962Z,11.10
2022-11-23T12:56:51.747Z,11.20
2022-11-23T13:02:23.701Z,11.30
2022-11-23T13:07:55.803Z,11.40
2022-11-23T13:13:27.629Z,11.45
2022-11-23T13:19:04.373Z,11.50
2022-11-23T13:24:32.164Z,11.65
2022-11-23T13:30:03.520Z,11.80
2022-11-23T13:35:35.277Z,11.90
2022-11-23T13:41:07.248Z,12.10
2022-11-23T13:46:38.946Z,12.20
2022-11-23T13:52:10.782Z,12.20
2022-11-23T13:54:34.455Z,2.00
2022-11-23T14:00:05.779Z,1.48
2022-11-23T14:05:37.467Z,1.31
2022-11-23T14:11:09.647Z,1.97
2022-11-23T14:16:41.185Z,1.96
2022-11-23T14:22:13.023Z,1.96
2022-11-23T14:27:47.629Z,2.24
2022-11-23T14:33:16.681Z,2.33
2022-11-23T14:38:48.480Z,2.18
2022-11-23T14:44:20.189Z,2.16
2022-11-23T14:49:51.942Z,2.14
2022-11-23T14:55:23.753Z,2.04
2022-11-23T15:00:55.885Z,2.26
2022-11-23T15:06:27.363Z,2.31
2022-11-23T15:11:59.345Z,2.42
2022-11-23T15:17:30.900Z,2.45
2022-11-23T15:23:02.705Z,2.42
2022-11-23T15:28:34.384Z,2.29
2022-11-23T15:34:05.791Z,2.32
2022-11-23T15:39:37.516Z,2.35
2022-11-23T15:45:09.396Z,2.50
2022-11-23T15:50:41.324Z,2.55
2022-11-23T15:56:12.934Z,2.60
2022-11-23T16:01:44.801Z,2.70
2022-11-23T16:07:16.481Z,2.80
2022-11-23T16:12:48.362Z,2.95
2022-11-23T16:18:20.124Z,3.00
2022-11-23T16:23:51.738Z,3.10
2022-11-23T16:29:24.063Z,3.15
2022-11-23T16:34:56.118Z,3.25
2022-11-23T16:40:27.913Z,3.30
2022-11-23T16:45:59.555Z,3.30
2022-11-23T16:51:31.051Z,3.30
2022-11-23T16:57:02.698Z,3.40
2022-11-23T17:02:36.070Z,3.50
2022-11-23T17:08:07.850Z,3.65
2022-11-23T17:13:39.590Z,3.75
2022-11-23T17:19:11.465Z,3.95
2022-11-23T17:24:43.111Z,4.00
2022-11-23T17:30:14.899Z,4.05
2022-11-23T17:35:46.552Z,4.15
2022-11-23T17:41:18.038Z,4.25
2022-11-23T17:46:49.736Z,4.40
2022-11-23T17:52:21.330Z,4.45
2022-11-23T17:57:52.805Z,4.60
2022-11-23T18:03:24.840Z,4.60
2022-11-23T18:08:56.569Z,4.70
2022-11-23T18:14:28.102Z,4.70
2022-11-23T18:19:59.845Z,4.70
2022-11-23T18:25:31.708Z,4.70
2022-11-23T18:36:32.974Z,4.85
2022-11-23T18:42:06.077Z,4.90
2022-11-23T18:47:36.580Z,4.90
2022-11-23T18:53:08.436Z,5.00
2022-11-23T19:04:09.723Z,5.20
2022-11-23T19:15:10.915Z,5.30
2022-11-23T19:20:42.598Z,5.35
2022-11-23T19:31:44.068Z,5.55
2022-11-23T19:37:15.750Z,5.75
2022-11-23T19:42:47.490Z,5.90
2022-11-23T19:48:19.359Z,5.95
2022-11-23T19:56:12.655Z,2.00
2022-11-23T20:01:44.747Z,2.97
2022-11-23T20:07:16.592Z,2.62
2022-11-23T20:12:47.818Z,2.21
2022-11-23T20:18:19.334Z,1.97
2022-11-23T20:23:51.403Z,1.80
2022-11-23T20:29:22.817Z,1.96
2022-11-23T20:34:54.738Z,1.96
2022-11-23T20:45:55.683Z,2.06
2022-11-23T20:51:27.749Z,2.05
2022-11-23T20:56:59.363Z,1.96
2022-11-23T21:02:31.048Z,2.04
2022-11-23T21:08:02.965Z,1.96
2022-11-23T21:13:48.554Z,1.83
2022-11-23T21:19:06.464Z,1.78
2022-11-23T21:24:38.050Z,1.79
2022-11-23T21:30:09.737Z,1.80
2022-11-23T21:35:41.816Z,2.01
2022-11-23T21:41:13.650Z,2.25
2022-11-23T21:46:45.379Z,2.25
2022-11-23T21:52:17.065Z,2.40
2022-11-23T21:57:49.000Z,2.65
2022-11-23T22:03:20.803Z,2.75
2022-11-23T22:08:52.795Z,2.80
2022-11-23T22:14:24.933Z,2.85
2022-11-23T22:19:56.744Z,2.95
2022-11-23T22:25:28.439Z,3.10
2022-11-23T22:31:00.322Z,3.25
2022-11-23T22:36:32.186Z,3.40
2022-11-23T22:42:03.944Z,3.65
2022-11-23T22:47:35.442Z,3.90
2022-11-23T22:53:07.327Z,3.95
2022-11-23T22:58:39.360Z,4.05
2022-11-23T23:04:12.429Z,4.30
2022-11-23T23:09:44.269Z,4.35
2022-11-23T23:15:16.443Z,4.55
2022-11-23T23:20:48.250Z,4.65
2022-11-23T23:26:20.448Z,4.80
2022-11-23T23:31:52.688Z,4.90
2022-11-23T23:37:24.595Z,5.05
2022-11-23T23:42:56.496Z,5.10
2022-11-23T23:48:28.510Z,5.20
2022-11-23T23:54:00.156Z,5.25
2022-11-23T23:59:31.864Z,5.40
